Time;durP1;ratioP1;P1;durP2;ratioP2;P2;SDS_P1;SDS_P2;PMS_P1;PMS_P2;Temp;Humidity;BMP_temperature;BMP_pressure;BME280_temperature;BME280_humidity;BME280_pressure;Samples;Min_cycle;Max_cycle;Signal;HPM_P1;HPM_P2
2021/11/29 00:02:01;;;;;;;3.98;3.00;;;;;;;6.67;73.06;95277.86;1681741;85;21012;-73
2021/11/29 00:04:28;;;;;;;4.60;2.90;;;;;;;6.67;73.37;95273.45;1681896;85;21041;-73
2021/11/29 00:06:54;;;;;;;5.80;3.08;;;;;;;6.65;72.85;95285.88;1688770;85;21414;-73
2021/11/29 00:09:21;;;;;;;6.72;3.17;;;;;;;6.64;72.96;95281.52;1682019;85;21013;-73
2021/11/29 00:11:47;;;;;;;4.20;2.72;;;;;;;6.61;72.91;95283.03;1688733;85;21002;-73
2021/11/29 00:14:14;;;;;;;4.22;2.95;;;;;;;6.59;72.87;95293.64;1636931;87;21458;-73
2021/11/29 00:16:40;;;;;;;4.53;2.98;;;;;;;6.59;72.93;95287.52;1681620;85;20998;-73
2021/11/29 00:19:07;;;;;;;4.15;2.60;;;;;;;6.60;73.12;95282.63;1681997;85;21008;-74
2021/11/29 00:21:36;;;;;;;3.30;2.65;;;;;;;6.62;73.34;95279.91;1682001;85;20981;-74
2021/11/29 00:24:05;;;;;;;4.20;2.27;;;;;;;6.64;73.28;95279.38;1702486;84;21082;-73
2021/11/29 00:26:32;;;;;;;5.25;2.60;;;;;;;6.63;73.29;95274.56;1708989;84;20992;-74
2021/11/29 00:28:58;;;;;;;4.45;2.35;;;;;;;6.62;73.48;95286.04;1709213;84;21064;-74
2021/11/29 00:31:25;;;;;;;3.77;2.47;;;;;;;6.63;73.67;95272.39;1709182;84;21409;-74
2021/11/29 00:33:51;;;;;;;3.20;2.10;;;;;;;6.64;73.81;95271.48;1709417;84;21014;-74
2021/11/29 00:36:18;;;;;;;4.28;2.08;;;;;;;6.68;74.19;95267.73;1709374;84;21047;-73
2021/11/29 00:38:45;;;;;;;3.98;2.40;;;;;;;6.70;74.06;95263.22;1709184;84;21568;-73
2021/11/29 00:41:11;;;;;;;3.45;2.20;;;;;;;6.71;74.25;95256.56;1709518;84;20990;-73
2021/11/29 00:43:38;;;;;;;3.47;2.12;;;;;;;6.73;74.24;95257.79;1709524;84;21005;-74
2021/11/29 00:46:05;;;;;;;5.80;2.05;;;;;;;6.74;74.25;95253.72;1708978;84;21021;-73
2021/11/29 00:48:32;;;;;;;2.42;1.50;;;;;;;6.77;74.29;95246.61;1709245;84;21377;-74
2021/11/29 00:50:58;;;;;;;3.35;2.40;;;;;;;6.78;74.35;95238.63;1681132;85;21019;-74
2021/11/29 00:53:24;;;;;;;2.75;1.67;;;;;;;6.80;74.39;95238.05;1681076;85;21035;-73
2021/11/29 00:55:51;;;;;;;3.15;1.77;;;;;;;6.80;74.43;95223.57;1681043;85;21015;-73
2021/11/29 00:58:19;;;;;;;14.28;2.42;;;;;;;6.79;74.23;95227.16;1681156;85;21066;-73
2021/11/29 01:00:45;;;;;;;2.50;1.70;;;;;;;6.82;74.22;95228.75;1707099;84;21375;-73
2021/11/29 01:03:12;;;;;;;2.40;1.72;;;;;;;6.82;74.07;95222.17;1675134;85;21026;-73
2021/11/29 01:05:39;;;;;;;2.00;1.70;;;;;;;6.82;73.90;95226.12;1709372;84;20969;-73
2021/11/29 01:08:06;;;;;;;3.08;1.70;;;;;;;6.80;73.75;95227.52;1708784;84;21407;-73
2021/11/29 01:10:33;;;;;;;4.33;1.87;;;;;;;6.78;73.67;95234.67;1709262;84;21016;-73
2021/11/29 01:13:00;;;;;;;5.10;2.00;;;;;;;6.76;73.65;95232.58;1709122;84;21009;-74
2021/11/29 01:15:34;;;;;;;2.98;1.85;;;;;;;6.70;73.47;95225.92;1709276;84;21028;-74
2021/11/29 01:18:07;;;;;;;;;;;;;;;6.69;73.59;95227.31;1711411;84;20984;-73
2021/11/29 01:20:29;;;;;;;2.37;1.70;;;;;;;6.64;73.50;95232.00;1708480;84;20098;-74
2021/11/29 01:22:56;;;;;;;4.22;1.80;;;;;;;6.57;73.57;95224.94;1704178;84;21084;-73
2021/11/29 01:25:22;;;;;;;2.83;1.70;;;;;;;6.53;73.68;95224.27;1669005;85;21045;-73
2021/11/29 01:27:49;;;;;;;2.65;1.62;;;;;;;6.49;73.70;95220.58;1684654;85;20990;-73
2021/11/29 01:30:16;;;;;;;2.12;1.67;;;;;;;6.43;73.64;95219.14;1681474;85;20995;-73
2021/11/29 01:32:42;;;;;;;3.98;1.80;;;;;;;6.40;73.68;95210.12;1681803;85;20971;-73
2021/11/29 01:35:11;;;;;;;3.20;1.60;;;;;;;6.32;73.56;95202.20;1681456;85;21002;-73
2021/11/29 01:37:37;;;;;;;5.00;2.08;;;;;;;6.24;73.65;95203.12;1681693;85;21501;-74
2021/11/29 01:40:08;;;;;;;3.75;1.80;;;;;;;6.16;74.06;95203.56;1691270;84;21009;-73
2021/11/29 01:42:37;;;;;;;3.20;1.70;;;;;;;6.11;74.35;95212.64;1681477;85;21000;-73
2021/11/29 01:45:05;;;;;;;2.62;1.40;;;;;;;6.07;74.32;95222.49;1691662;85;21362;-73
2021/11/29 01:47:31;;;;;;;4.00;1.90;;;;;;;6.02;74.28;95215.30;1687832;84;20987;-73
2021/11/29 01:49:58;;;;;;;3.20;1.60;;;;;;;5.99;74.33;95210.20;1681665;85;21061;-73
2021/11/29 01:52:24;;;;;;;3.12;1.80;;;;;;;5.94;74.32;95204.73;1691344;85;21441;-73
2021/11/29 01:54:51;;;;;;;3.87;1.65;;;;;;;5.93;75.36;95203.05;1691659;85;21013;-73
2021/11/29 01:57:17;;;;;;;3.58;1.57;;;;;;;5.92;75.04;95198.73;1681870;84;21016;-74
2021/11/29 01:59:44;;;;;;;3.20;1.50;;;;;;;5.92;75.40;95200.05;1681946;85;21029;-73
2021/11/29 02:02:12;;;;;;;2.72;1.42;;;;;;;5.92;75.04;95185.58;1681972;85;21488;-73
2021/11/29 02:04:39;;;;;;;3.40;1.72;;;;;;;5.95;75.45;95182.77;1682023;85;21359;-73
2021/11/29 02:07:05;;;;;;;2.58;1.70;;;;;;;6.02;75.89;95181.12;1681881;85;20987;-73
2021/11/29 02:09:33;;;;;;;2.27;1.50;;;;;;;6.06;76.58;95165.56;1678396;85;20993;-73
2021/11/29 02:12:02;;;;;;;1.95;1.52;;;;;;;6.11;75.77;95167.48;1682024;84;21040;-73
2021/11/29 02:14:32;;;;;;;2.10;1.50;;;;;;;6.10;75.83;95155.25;1691343;85;21052;-73
2021/11/29 02:16:59;;;;;;;2.45;1.75;;;;;;;6.15;76.49;95145.31;1691587;84;21024;-73
2021/11/29 02:19:26;;;;;;;4.58;1.77;;;;;;;6.16;75.73;95144.86;1691507;85;21380;-73
2021/11/29 02:21:53;;;;;;;3.77;1.85;;;;;;;6.13;76.38;95140.63;1691572;85;20982;-73
2021/11/29 02:24:19;;;;;;;3.72;1.60;;;;;;;6.12;75.80;95148.59;1692092;84;21447;-73
2021/11/29 02:26:47;;;;;;;2.52;1.30;;;;;;;6.11;75.68;95139.88;1692042;85;20974;-73
2021/11/29 02:29:16;;;;;;;3.40;1.42;;;;;;;6.09;75.76;95135.16;1691993;85;21450;-73
2021/11/29 02:31:46;;;;;;;3.22;1.20;;;;;;;6.14;75.71;95140.17;1691909;85;21068;-72
2021/11/29 02:34:19;;;;;;;1.95;1.37;;;;;;;6.16;75.61;95131.70;1691606;85;21414;-72
2021/11/29 02:36:48;;;;;;;2.30;1.52;;;;;;;6.15;75.61;95118.19;1691054;85;21422;-72
2021/11/29 02:39:17;;;;;;;2.67;1.47;;;;;;;6.13;75.39;95127.93;1690448;85;21018;-73
2021/11/29 02:41:47;;;;;;;2.35;1.30;;;;;;;6.09;75.20;95127.75;1690671;85;21219;-72
2021/11/29 02:44:14;;;;;;;2.80;1.20;;;;;;;6.06;75.62;95129.61;1690548;85;21370;-72
2021/11/29 02:46:42;;;;;;;1.67;1.22;;;;;;;6.05;75.90;95133.64;1690976;85;21417;-72
2021/11/29 02:49:10;;;;;;;1.72;1.25;;;;;;;6.04;75.67;95133.27;1690524;85;21073;-72
2021/11/29 02:51:58;;;;;;;2.92;1.40;;;;;;;6.03;75.44;95125.00;1690490;85;21478;-72
2021/11/29 02:54:32;;;;;;;2.12;1.05;;;;;;;6.01;75.45;95125.05;1690547;85;21498;-72
2021/11/29 02:57:03;;;;;;;1.75;1.30;;;;;;;6.01;75.38;95125.05;1691579;85;20949;-73
2021/11/29 02:59:34;;;;;;;1.77;1.00;;;;;;;6.01;75.43;95124.19;1692016;85;21063;-73
2021/11/29 03:02:05;;;;;;;2.25;1.60;;;;;;;6.01;75.46;95125.05;1691954;85;21016;-73
2021/11/29 03:04:33;;;;;;;2.20;1.40;;;;;;;6.02;75.50;95115.39;1692009;85;21052;-73
2021/11/29 03:07:02;;;;;;;1.65;1.22;;;;;;;6.06;75.89;95126.12;1691757;84;20988;-73
2021/11/29 03:09:30;;;;;;;3.45;1.47;;;;;;;6.07;75.55;95125.21;1692048;84;20974;-73
2021/11/29 03:11:57;;;;;;;2.22;1.37;;;;;;;6.10;75.91;95113.67;1692167;84;21008;-74
2021/11/29 03:14:24;;;;;;;3.20;1.40;;;;;;;6.15;76.28;95107.18;1691890;84;21053;-73
2021/11/29 03:16:53;;;;;;;3.45;1.77;;;;;;;6.15;75.97;95113.75;1692011;84;21077;-73
2021/11/29 03:19:23;;;;;;;2.80;1.47;;;;;;;6.13;76.56;95123.98;1691803;85;21088;-73
2021/11/29 03:21:50;;;;;;;2.42;1.52;;;;;;;6.12;75.95;95137.62;1691817;85;21469;-73
2021/11/29 03:24:16;;;;;;;3.92;2.15;;;;;;;6.08;75.93;95134.78;1691900;84;21080;-73
2021/11/29 03:26:43;;;;;;;2.80;1.50;;;;;;;6.04;75.90;95134.12;1691866;85;20954;-73
2021/11/29 03:29:14;;;;;;;2.17;1.87;;;;;;;5.99;75.85;95144.02;1691964;85;21045;-73
2021/11/29 03:31:43;;;;;;;4.72;2.55;;;;;;;5.95;75.87;95157.79;1667537;86;21104;-73
2021/11/29 03:34:14;;;;;;;3.98;1.90;;;;;;;5.96;77.42;95167.84;1667541;86;21024;-73
2021/11/29 03:36:45;;;;;;;2.92;1.72;;;;;;;6.06;77.25;95187.91;1701415;84;21051;-73
2021/11/29 03:39:17;;;;;;;3.27;1.62;;;;;;;6.23;76.98;95199.27;1700347;84;21047;-74
2021/11/29 03:41:46;;;;;;;2.45;1.70;;;;;;;6.40;76.55;95196.97;1699094;84;21031;-74
2021/11/29 03:44:14;;;;;;;5.22;2.90;;;;;;;6.58;76.13;95193.73;1676715;84;21731;-73
2021/11/29 03:46:43;;;;;;;2.17;1.70;;;;;;;6.66;75.44;95197.22;1699241;84;21535;-74
2021/11/29 03:49:10;;;;;;;5.08;3.20;;;;;;;6.66;75.06;95238.02;1699192;84;21110;-74
2021/11/29 03:51:37;;;;;;;3.42;1.77;;;;;;;6.77;75.10;95232.95;1699356;84;21016;-74
2021/11/29 03:54:04;;;;;;;3.95;2.30;;;;;;;6.85;74.92;95222.83;1699629;84;21055;-74
2021/11/29 03:56:32;;;;;;;3.42;1.87;;;;;;;6.96;75.23;95223.97;1699437;84;21006;-74
2021/11/29 03:58:59;;;;;;;2.37;1.70;;;;;;;7.02;75.10;95231.49;1699628;84;21486;-74
2021/11/29 04:01:26;;;;;;;2.83;1.90;;;;;;;7.09;75.23;95236.78;1699505;84;20978;-74
2021/11/29 04:03:54;;;;;;;3.67;2.60;;;;;;;7.19;75.54;95229.16;1699473;84;20946;-74
2021/11/29 04:06:21;;;;;;;3.83;2.35;;;;;;;7.29;75.91;95242.63;1699353;84;21023;-74
2021/11/29 04:08:47;;;;;;;2.60;2.20;;;;;;;7.34;76.60;95241.88;1699661;84;21059;-74
2021/11/29 04:11:14;;;;;;;3.40;2.50;;;;;;;7.36;76.61;95245.75;1699748;84;22173;-74
2021/11/29 04:13:42;;;;;;;2.83;2.00;;;;;;;7.36;77.18;95272.09;1699615;84;21489;-74
2021/11/29 04:16:12;;;;;;;3.33;2.20;;;;;;;7.31;79.35;95272.84;1699428;84;21502;-72
2021/11/29 04:18:41;;;;;;;3.55;2.20;;;;;;;7.30;78.33;95265.88;1699650;84;20974;-72
2021/11/29 04:21:07;;;;;;;2.75;1.95;;;;;;;7.26;79.19;95261.25;1699746;84;20997;-72
2021/11/29 04:23:33;;;;;;;3.75;2.10;;;;;;;7.21;79.94;95256.27;1698524;84;21459;-72
2021/11/29 04:26:02;;;;;;;2.55;1.80;;;;;;;7.19;79.06;95262.58;1688534;85;21024;-72
2021/11/29 04:28:30;;;;;;;2.42;1.55;;;;;;;7.13;80.28;95259.83;1688812;85;21513;-74
2021/11/29 04:30:57;;;;;;;3.60;1.90;;;;;;;7.11;81.60;95275.72;1688529;84;21036;-74
2021/11/29 04:33:23;;;;;;;4.05;1.50;;;;;;;7.06;82.40;95279.58;1688598;85;21033;-74
2021/11/29 04:35:50;;;;;;;2.20;1.47;;;;;;;7.02;81.72;95272.31;1688813;85;21446;-74
2021/11/29 04:38:17;;;;;;;2.55;1.57;;;;;;;7.00;80.81;95276.83;1688275;85;20970;-74
2021/11/29 04:40:44;;;;;;;10.85;2.17;;;;;;;6.98;81.10;95267.70;1690975;84;20954;-74
2021/11/29 04:43:10;;;;;;;3.35;1.85;;;;;;;6.96;83.82;95264.78;1689055;84;21032;-73
2021/11/29 04:45:37;;;;;;;3.33;1.67;;;;;;;6.94;82.64;95269.30;1689046;84;21020;-74
2021/11/29 04:48:05;;;;;;;2.50;1.80;;;;;;;6.92;81.97;95259.31;1688937;85;20996;-74
2021/11/29 04:50:31;;;;;;;1.90;1.40;;;;;;;6.88;83.66;95270.50;1688719;85;21032;-74
2021/11/29 04:53:00;;;;;;;2.62;1.40;;;;;;;6.88;84.23;95282.34;1687812;85;21002;-74
2021/11/29 04:55:26;;;;;;;3.05;1.32;;;;;;;6.89;83.43;95290.63;1688970;85;21025;-73
2021/11/29 04:57:53;;;;;;;3.12;1.10;;;;;;;6.92;83.42;95301.44;1688699;85;21447;-73
2021/11/29 05:00:22;;;;;;;1.50;1.25;;;;;;;6.91;83.65;95311.59;1688631;85;21050;-73
2021/11/29 05:02:49;;;;;;;1.77;1.10;;;;;;;6.88;84.43;95298.64;1687734;84;20993;-74
2021/11/29 05:05:17;;;;;;;2.20;1.20;;;;;;;6.88;84.71;95305.22;1687558;85;21093;-73
2021/11/29 05:07:45;;;;;;;1.72;1.00;;;;;;;6.84;85.96;95304.52;1688842;84;21010;-73
2021/11/29 05:10:12;;;;;;;2.00;1.10;;;;;;;6.78;88.33;95300.48;1688855;85;21021;-73
2021/11/29 05:12:39;;;;;;;1.20;1.05;;;;;;;6.72;89.26;95296.87;1687692;85;21076;-73
2021/11/29 05:15:07;;;;;;;1.98;0.95;;;;;;;6.66;88.26;95304.67;1688440;85;20997;-74
2021/11/29 05:17:34;;;;;;;2.10;1.10;;;;;;;6.64;89.11;95315.73;1689293;83;21056;-74
2021/11/29 05:20:00;;;;;;;2.17;1.30;;;;;;;6.57;90.93;95313.91;1688878;85;21044;-73
2021/11/29 05:22:27;;;;;;;2.08;0.85;;;;;;;6.55;90.55;95313.17;1688855;85;21376;-73
2021/11/29 05:24:54;;;;;;;1.42;1.00;;;;;;;6.53;90.83;95322.09;1687578;85;21053;-74
2021/11/29 05:27:20;;;;;;;1.75;1.30;;;;;;;6.51;91.25;95312.13;1637050;87;21071;-73
2021/11/29 05:29:47;;;;;;;2.42;1.15;;;;;;;6.54;90.87;95314.11;1682022;85;21381;-73
2021/11/29 05:32:13;;;;;;;2.33;1.05;;;;;;;6.52;91.52;95319.08;1681819;85;20992;-74
2021/11/29 05:34:42;;;;;;;1.30;0.82;;;;;;;6.51;91.36;95326.60;1688812;85;21036;-73
2021/11/29 05:37:08;;;;;;;2.10;1.20;;;;;;;6.50;90.22;95325.73;1688593;85;21005;-73
2021/11/29 05:39:35;;;;;;;1.77;1.25;;;;;;;6.50;90.68;95316.53;1636878;87;21108;-74
2021/11/29 05:42:01;;;;;;;1.72;1.20;;;;;;;6.46;90.83;95317.18;1682022;85;21054;-73
2021/11/29 05:44:28;;;;;;;1.45;1.00;;;;;;;6.42;90.74;95312.16;1688803;85;21025;-74
2021/11/29 05:46:54;;;;;;;1.07;0.85;;;;;;;6.39;91.10;95317.61;1688449;85;21028;-73
2021/11/29 05:49:21;;;;;;;1.20;0.90;;;;;;;6.29;91.48;95314.18;1688666;85;21115;-74
2021/11/29 05:51:47;;;;;;;1.55;1.17;;;;;;;6.28;91.37;95313.80;1688630;85;21415;-71
2021/11/29 05:54:14;;;;;;;1.10;0.98;;;;;;;6.25;91.35;95323.63;1637243;86;21314;-74
2021/11/29 05:56:40;;;;;;;1.30;1.00;;;;;;;6.24;90.10;95327.19;1682059;85;21059;-74
2021/11/29 05:59:08;;;;;;;1.12;0.82;;;;;;;6.22;91.09;95329.07;1681873;85;20975;-74
2021/11/29 06:01:35;;;;;;;1.52;1.10;;;;;;;6.21;91.01;95340.05;1681013;83;20985;-74
2021/11/29 06:04:02;;;;;;;1.70;1.17;;;;;;;6.22;91.23;95344.85;1681950;84;21432;-73
2021/11/29 06:06:29;;;;;;;2.65;1.20;;;;;;;6.19;91.64;95353.76;1681647;85;21036;-73
2021/11/29 06:08:55;;;;;;;1.55;1.25;;;;;;;6.16;92.32;95367.92;1688863;84;21421;-74
2021/11/29 06:11:21;;;;;;;2.40;1.37;;;;;;;6.13;91.35;95365.45;1687935;85;21009;-74
2021/11/29 06:13:48;;;;;;;2.33;1.30;;;;;;;6.12;90.92;95372.10;1637032;87;21021;-73
2021/11/29 06:16:14;;;;;;;1.62;1.12;;;;;;;6.12;90.75;95387.42;1681763;85;21034;-74
2021/11/29 06:18:41;;;;;;;1.77;1.45;;;;;;;6.11;89.84;95382.24;1681688;85;21064;-73
2021/11/29 06:21:07;;;;;;;2.50;1.42;;;;;;;6.10;89.92;95391.07;1681464;85;20969;-73
2021/11/29 06:23:34;;;;;;;2.58;1.67;;;;;;;6.09;90.93;95388.89;1681757;85;22111;-73
2021/11/29 06:26:00;;;;;;;2.60;1.75;;;;;;;6.07;89.80;95399.97;1693385;84;20976;-73
2021/11/29 06:28:27;;;;;;;11.45;5.70;;;;;;;6.06;89.56;95404.37;1699027;84;20983;-73
2021/11/29 06:30:55;;;;;;;2.70;2.00;;;;;;;6.05;89.17;95405.31;1709052;84;21082;-73
2021/11/29 06:33:22;;;;;;;1.47;1.25;;;;;;;6.04;89.67;95415.45;1709397;84;21007;-73
2021/11/29 06:35:50;;;;;;;3.02;1.70;;;;;;;6.03;89.31;95418.98;1709196;84;21003;-73
2021/11/29 06:38:18;;;;;;;2.08;1.50;;;;;;;6.02;89.69;95418.58;1709043;84;21043;-73
2021/11/29 06:40:49;;;;;;;2.17;1.50;;;;;;;6.00;89.78;95422.22;1709379;84;21472;-74
2021/11/29 06:43:18;;;;;;;1.70;1.17;;;;;;;5.99;89.65;95429.73;1709237;84;21410;-74
2021/11/29 06:45:45;;;;;;;2.45;1.00;;;;;;;5.99;90.51;95428.41;1709134;84;21028;-73
2021/11/29 06:48:11;;;;;;;1.80;1.10;;;;;;;6.00;89.85;95436.68;1709272;84;20954;-73
2021/11/29 06:50:38;;;;;;;2.05;0.95;;;;;;;6.01;89.42;95433.11;1709172;84;21025;-73
2021/11/29 06:53:06;;;;;;;2.30;1.30;;;;;;;6.02;89.34;95426.46;1709418;84;21028;-73
2021/11/29 06:55:33;;;;;;;2.12;0.95;;;;;;;6.05;89.03;95430.73;1709312;84;21019;-73
2021/11/29 06:58:03;;;;;;;1.77;1.25;;;;;;;6.10;89.30;95431.83;1709428;84;21066;-73
2021/11/29 07:00:32;;;;;;;3.12;1.10;;;;;;;6.14;89.78;95436.83;1709357;84;21074;-74
2021/11/29 07:02:59;;;;;;;1.47;1.00;;;;;;;6.19;89.19;95440.55;1709276;84;21027;-73
2021/11/29 07:05:28;;;;;;;1.40;1.10;;;;;;;6.24;89.09;95428.00;1708331;84;21509;-73
2021/11/29 07:07:56;;;;;;;2.47;1.12;;;;;;;6.29;88.95;95419.39;1674876;85;21100;-73
2021/11/29 07:10:25;;;;;;;1.82;1.10;;;;;;;6.34;89.04;95416.05;1709218;84;21069;-73
2021/11/29 07:12:53;;;;;;;3.30;0.90;;;;;;;6.38;88.48;95417.17;1708845;84;20986;-74
2021/11/29 07:15:22;;;;;;;3.40;1.17;;;;;;;6.40;88.47;95425.84;1702751;84;21015;-74
2021/11/29 07:17:50;;;;;;;1.60;1.02;;;;;;;6.40;87.47;95429.80;1709592;84;21632;-73
2021/11/29 07:20:17;;;;;;;1.87;1.17;;;;;;;6.44;87.32;95439.22;1709197;84;21397;-73
2021/11/29 07:22:45;;;;;;;2.40;1.05;;;;;;;6.45;87.89;95440.91;1709353;84;21034;-74
2021/11/29 07:25:12;;;;;;;2.58;1.17;;;;;;;6.41;87.43;95448.13;1709326;84;21538;-74
2021/11/29 07:27:39;;;;;;;1.75;1.10;;;;;;;6.42;87.42;95444.56;1682927;84;22128;-73
2021/11/29 07:30:10;;;;;;;1.75;1.00;;;;;;;6.44;87.50;95464.22;1682099;85;20969;-73
2021/11/29 07:32:37;;;;;;;1.30;0.90;;;;;;;6.41;87.01;95481.02;1681989;85;21541;-73
2021/11/29 07:35:05;;;;;;;1.82;1.17;;;;;;;6.41;86.96;95488.91;1681960;85;20947;-74
2021/11/29 07:37:32;;;;;;;1.98;1.05;;;;;;;6.45;86.64;95500.95;1682073;85;21435;-74
2021/11/29 07:39:59;;;;;;;2.15;1.35;;;;;;;6.50;86.58;95498.53;1682070;85;20990;-74
2021/11/29 07:42:25;;;;;;;2.72;1.70;;;;;;;6.53;86.32;95504.97;1681962;85;21024;-74
2021/11/29 07:44:51;;;;;;;2.40;1.35;;;;;;;6.54;86.18;95515.41;1691740;85;21024;-74
2021/11/29 07:47:18;;;;;;;3.02;1.50;;;;;;;6.50;84.72;95513.02;1681917;84;20990;-74
2021/11/29 07:49:44;;;;;;;3.25;1.50;;;;;;;6.51;85.24;95510.79;1682121;85;21471;-74
2021/11/29 07:52:13;;;;;;;1.50;1.00;;;;;;;6.47;84.86;95518.83;1682089;85;21064;-74
2021/11/29 07:54:39;;;;;;;3.33;1.62;;;;;;;6.49;84.91;95508.23;1681382;83;21013;-73
2021/11/29 07:57:06;;;;;;;5.95;2.60;;;;;;;6.50;84.86;95510.38;1681844;85;21084;-74
2021/11/29 07:59:33;;;;;;;6.87;3.40;;;;;;;6.52;83.99;95513.80;1678250;85;20989;-72
2021/11/29 08:01:59;;;;;;;4.83;2.60;;;;;;;6.49;83.87;95510.00;1681816;85;21115;-74
2021/11/29 08:04:26;;;;;;;3.72;2.08;;;;;;;6.49;84.17;95510.87;1682788;84;20983;-74
2021/11/29 08:06:53;;;;;;;3.27;1.52;;;;;;;6.50;84.40;95515.19;1685059;84;21405;-74
2021/11/29 08:09:20;;;;;;;7.67;4.78;;;;;;;6.46;83.56;95522.41;1691625;84;21044;-74
2021/11/29 08:11:46;;;;;;;40.92;22.10;;;;;;;6.49;84.12;95517.90;1691601;85;21020;-74
2021/11/29 08:14:13;;;;;;;3.72;2.42;;;;;;;6.48;83.87;95515.75;1674721;84;20988;-74
2021/11/29 08:16:39;;;;;;;3.55;1.62;;;;;;;6.50;83.63;95514.33;1665038;85;21047;-74
2021/11/29 08:19:06;;;;;;;2.62;1.40;;;;;;;6.47;84.10;95521.47;1684623;85;20981;-72
2021/11/29 08:21:33;;;;;;;2.45;1.52;;;;;;;6.42;83.78;95523.49;1691516;85;21060;-73
2021/11/29 08:23:59;;;;;;;2.35;1.30;;;;;;;6.41;83.70;95529.69;1691584;85;20992;-73
2021/11/29 08:26:28;;;;;;;3.08;1.72;;;;;;;6.38;83.60;95523.72;1691410;84;20991;-73
2021/11/29 08:28:55;;;;;;;3.58;1.40;;;;;;;6.36;83.51;95529.54;1709007;84;21042;-73
2021/11/29 08:31:22;;;;;;;2.55;1.40;;;;;;;6.33;83.55;95526.61;1709089;84;21055;-73
2021/11/29 08:33:48;;;;;;;2.83;1.60;;;;;;;6.34;84.06;95529.16;1708819;84;21030;-73
2021/11/29 08:36:15;;;;;;;2.27;1.40;;;;;;;6.32;84.60;95542.84;1708984;84;21476;-74
2021/11/29 08:38:41;;;;;;;2.30;1.37;;;;;;;6.33;84.09;95537.13;1709276;84;21002;-74
2021/11/29 08:41:08;;;;;;;4.22;1.60;;;;;;;6.37;84.05;95533.86;1709166;84;20983;-79
2021/11/29 08:43:38;;;;;;;5.25;1.82;;;;;;;6.39;83.92;95532.85;1709208;84;21406;-75
2021/11/29 08:46:03;;;;;;;3.17;1.60;;;;;;;6.35;83.09;95524.73;1707814;82;21015;-76
2021/11/29 08:48:29;;;;;;;3.90;1.95;;;;;;;6.36;83.51;95518.56;1701699;82;21572;-76
2021/11/29 08:50:56;;;;;;;3.67;1.55;;;;;;;6.36;83.33;95522.51;1708285;84;21066;-75
2021/11/29 08:53:27;;;;;;;4.42;2.00;;;;;;;6.36;83.22;95526.91;1708547;84;20996;-75
2021/11/29 08:55:55;;;;;;;2.15;1.35;;;;;;;6.38;83.31;95528.52;1706227;84;21043;-75
2021/11/29 08:58:22;;;;;;;3.83;1.37;;;;;;;6.41;83.08;95528.83;1708018;84;20987;-75
2021/11/29 09:00:52;;;;;;;2.72;1.60;;;;;;;6.44;83.42;95522.10;1707700;84;21271;-73
2021/11/29 09:03:22;;;;;;;2.47;1.35;;;;;;;6.49;83.38;95504.28;1705716;84;21440;-73
2021/11/29 09:05:49;;;;;;;2.10;1.50;;;;;;;6.54;83.48;95500.94;1704153;84;21113;-72
2021/11/29 09:08:17;;;;;;;2.17;1.57;;;;;;;6.60;83.29;95496.66;1708963;84;21039;-73
2021/11/29 09:10:46;;;;;;;2.52;1.42;;;;;;;6.67;82.86;95501.58;1708667;84;21101;-74
2021/11/29 09:13:14;;;;;;;3.33;1.55;;;;;;;6.66;82.01;95503.37;1709320;83;20986;-74
2021/11/29 09:15:44;;;;;;;3.52;1.52;;;;;;;6.67;81.91;95510.33;1708720;84;21083;-74
2021/11/29 09:18:12;;;;;;;5.22;1.37;;;;;;;6.74;82.21;95512.17;1708898;84;20991;-75
2021/11/29 09:20:41;;;;;;;2.40;1.22;;;;;;;6.81;82.34;95496.41;1709230;84;21540;-75
2021/11/29 09:23:12;;;;;;;1.90;1.32;;;;;;;6.90;82.18;95499.48;1709358;84;21444;-74
2021/11/29 09:25:41;;;;;;;2.47;1.45;;;;;;;7.00;82.25;95501.98;1708323;84;21011;-73
2021/11/29 09:28:13;;;;;;;1.50;1.15;;;;;;;7.07;81.72;95502.50;1683497;84;21478;-72
2021/11/29 09:30:43;;;;;;;1.72;1.27;;;;;;;7.19;81.81;95498.33;1691475;85;21052;-74
2021/11/29 09:33:11;;;;;;;2.55;1.40;;;;;;;7.32;81.88;95490.11;1691149;85;21063;-74
2021/11/29 09:35:38;;;;;;;1.85;1.10;;;;;;;7.47;81.21;95480.95;1681481;85;21013;-72
2021/11/29 09:38:05;;;;;;;2.45;1.10;;;;;;;7.62;81.29;95477.88;1681355;85;21046;-74
2021/11/29 09:40:36;;;;;;;2.47;1.77;;;;;;;7.73;80.04;95485.16;1680996;85;21428;-75
2021/11/29 09:43:10;;;;;;;2.08;1.32;;;;;;;7.84;80.44;95470.87;1680265;85;21041;-75
2021/11/29 09:45:41;;;;;;;2.37;1.57;;;;;;;7.98;79.51;95473.16;1681461;85;21002;-72
2021/11/29 09:48:09;;;;;;;2.00;1.15;;;;;;;8.00;77.76;95480.04;1681325;85;21039;-73
2021/11/29 09:50:42;;;;;;;2.17;1.30;;;;;;;8.05;78.21;95474.47;1680812;85;21517;-74
2021/11/29 09:53:10;;;;;;;2.10;1.00;;;;;;;8.00;76.80;95461.58;1690417;85;21434;-73
2021/11/29 09:55:38;;;;;;;1.67;1.02;;;;;;;7.98;77.45;95462.16;1690858;85;21390;-73
2021/11/29 09:58:05;;;;;;;2.00;1.10;;;;;;;7.98;77.11;95470.06;1681189;85;21041;-73
2021/11/29 10:00:40;;;;;;;2.10;1.00;;;;;;;8.01;76.67;95468.54;1681486;84;21017;-73
2021/11/29 10:03:08;;;;;;;1.42;0.82;;;;;;;7.96;76.84;95478.98;1680954;84;20965;-72
2021/11/29 10:05:36;;;;;;;0.98;0.80;;;;;;;7.92;75.64;95487.55;1691109;85;21462;-73
2021/11/29 10:08:23;;;;;;;3.52;0.72;;;;;;;7.93;76.75;95497.16;1690909;85;21035;-73
2021/11/29 10:10:55;;;;;;;0.80;0.53;;;;;;;7.93;73.96;95493.20;1690907;85;21036;-73
2021/11/29 10:13:23;;;;;;;1.00;0.68;;;;;;;7.88;74.10;95500.53;1690722;85;20993;-74
2021/11/29 10:15:53;;;;;;;1.47;0.40;;;;;;;7.77;72.80;95477.45;1691066;85;21030;-74
2021/11/29 10:18:29;;;;;;;0.60;0.45;;;;;;;7.72;72.49;95481.67;1690984;85;21019;-77
2021/11/29 10:21:07;;;;;;;0.65;0.50;;;;;;;7.71;73.12;95482.61;1681538;85;21040;-75
2021/11/29 10:23:44;;;;;;;0.60;0.40;;;;;;;7.66;72.38;95485.98;1680559;83;21016;-75
2021/11/29 10:26:19;;;;;;;0.78;0.40;;;;;;;7.64;72.34;95499.74;1689555;85;21056;-75
2021/11/29 10:28:55;;;;;;;1.07;0.50;;;;;;;7.64;73.70;95499.74;1687881;85;21449;-75
2021/11/29 10:31:30;;;;;;;0.70;0.50;;;;;;;7.63;73.25;95509.88;1690389;85;21004;-73
2021/11/29 10:34:04;;;;;;;1.82;0.70;;;;;;;7.65;73.41;95510.66;1690734;84;20992;-73
2021/11/29 10:36:38;;;;;;;1.87;0.65;;;;;;;7.73;74.36;95518.95;1690621;85;20996;-75
2021/11/29 10:39:10;;;;;;;2.90;2.45;;;;;;;7.83;74.70;95510.50;1691030;85;21024;-73
2021/11/29 10:41:42;;;;;;;1.42;0.75;;;;;;;7.92;75.04;95501.59;1690978;84;21437;-74
2021/11/29 10:44:17;;;;;;;1.17;0.60;;;;;;;8.11;74.49;95499.64;1690822;85;21020;-73
2021/11/29 10:46:49;;;;;;;1.37;0.80;;;;;;;8.11;72.49;95493.91;1681228;85;21391;-73
2021/11/29 10:49:20;;;;;;;1.07;0.62;;;;;;;8.09;72.46;95500.22;1690971;85;21485;-76
2021/11/29 10:51:50;;;;;;;1.15;0.68;;;;;;;8.18;74.20;95496.55;1690792;85;21004;-76
2021/11/29 10:54:22;;;;;;;1.00;0.55;;;;;;;8.27;72.48;95500.41;1681083;85;21040;-74
2021/11/29 10:56:52;;;;;;;1.82;0.93;;;;;;;8.22;71.42;95513.03;1690527;85;21079;-74
2021/11/29 10:59:25;;;;;;;0.90;0.55;;;;;;;8.23;73.06;95502.88;1691147;85;21044;-74
2021/11/29 11:02:02;;;;;;;1.20;0.65;;;;;;;8.29;73.34;95502.95;1691638;85;21059;-74
2021/11/29 11:04:33;;;;;;;0.75;0.50;;;;;;;8.45;70.87;95506.84;1691384;85;21107;-73
2021/11/29 11:07:11;;;;;;;1.70;0.78;;;;;;;8.40;69.11;95498.35;1681962;84;21480;-73
2021/11/29 11:09:52;;;;;;;1.35;0.62;;;;;;;8.27;70.79;95503.05;1681863;85;21418;-73
2021/11/29 11:12:23;;;;;;;1.27;0.70;;;;;;;8.22;71.41;95509.07;1691052;85;21044;-73
2021/11/29 11:14:55;;;;;;;2.20;0.85;;;;;;;8.05;69.60;95509.63;1662236;85;21577;-72
2021/11/29 11:17:28;;;;;;;2.87;0.60;;;;;;;7.93;71.05;95508.56;1681321;85;21457;-76
2021/11/29 11:20:02;;;;;;;0.60;0.47;;;;;;;7.96;71.98;95496.98;1681546;85;21317;-73
2021/11/29 11:22:36;;;;;;;0.68;0.50;;;;;;;7.93;72.29;95505.06;1681599;85;21040;-73
2021/11/29 11:25:19;;;;;;;1.87;0.50;;;;;;;7.79;73.02;95509.84;1678542;85;20969;-74
2021/11/29 11:28:08;;;;;;;0.90;0.50;;;;;;;7.66;73.37;95518.94;1692791;84;21011;-74
2021/11/29 11:30:41;;;;;;;1.10;0.60;;;;;;;7.58;74.47;95506.20;1708730;84;21030;-74
2021/11/29 11:33:14;;;;;;;1.22;0.70;;;;;;;7.52;74.51;95513.98;1702021;84;20987;-73
2021/11/29 11:35:46;;;;;;;0.90;0.60;;;;;;;7.52;74.86;95519.75;1708855;84;21028;-75
2021/11/29 11:38:20;;;;;;;0.40;0.40;;;;;;;7.50;75.59;95521.60;1705789;84;21027;-75
2021/11/29 11:40:51;;;;;;;0.80;0.40;;;;;;;7.49;75.56;95533.09;1706883;84;21011;-73
2021/11/29 11:43:23;;;;;;;19.92;9.33;;;;;;;7.49;75.92;95547.13;1699140;84;21097;-76
2021/11/29 11:45:51;;;;;;;0.62;0.40;;;;;;;7.45;74.17;95550.87;1708177;84;21320;-74
2021/11/29 11:48:19;;;;;;;0.90;0.50;;;;;;;7.13;71.75;95558.77;1702617;84;20999;-75